Time;durP1;ratioP1;P1;durP2;ratioP2;P2;SDS_P1;SDS_P2;PMS_P1;PMS_P2;Temp;Humidity;BMP_temperature;BMP_pressure;BME280_temperature;BME280_humidity;BME280_pressure;Samples;Min_cycle;Max_cycle;Signal;HPM_P1;HPM_P2
2021/01/31 00:03:43;;;;;;;44.37;19.47;;;;;;;1.23;100.00;93636.16;10531106;28;20709;-79
2021/01/31 00:08:44;;;;;;;41.77;20.23;;;;;;;1.28;100.00;93630.13;10531167;28;20266;-79
2021/01/31 00:13:45;;;;;;;40.90;20.33;;;;;;;1.32;100.00;93644.50;10531356;28;20300;-79
2021/01/31 00:18:45;;;;;;;36.22;17.42;;;;;;;1.40;100.00;93627.41;10513168;28;20305;-79
2021/01/31 00:23:46;;;;;;;37.10;18.13;;;;;;;1.43;100.00;93624.25;10538252;28;20115;-80
2021/01/31 00:28:46;;;;;;;33.10;15.53;;;;;;;1.43;100.00;93640.94;10538996;28;20277;-79
2021/01/31 00:33:46;;;;;;;36.70;17.42;;;;;;;1.38;100.00;93638.22;10538253;28;20301;-79
2021/01/31 00:38:47;;;;;;;35.20;20.43;;;;;;;1.07;100.00;93653.63;10537568;28;20395;-77
2021/01/31 00:43:47;;;;;;;39.25;20.38;;;;;;;1.12;100.00;93639.69;10537791;28;20483;-77
2021/01/31 00:48:48;;;;;;;36.93;17.97;;;;;;;1.22;100.00;93636.41;10537852;28;20031;-78
2021/01/31 00:53:48;;;;;;;37.07;18.07;;;;;;;1.22;100.00;93663.66;10537383;28;20270;-77
2021/01/31 00:58:48;;;;;;;35.13;18.07;;;;;;;1.19;100.00;93630.53;10537245;28;20057;-77
2021/01/31 01:03:49;;;;;;;35.57;17.63;;;;;;;1.30;100.00;93620.13;10537096;28;20023;-78
2021/01/31 01:08:49;;;;;;;35.73;18.87;;;;;;;1.34;100.00;93635.25;10536852;28;20273;-78
2021/01/31 01:13:49;;;;;;;36.40;18.40;;;;;;;1.35;100.00;93644.00;10537001;28;20061;-78
2021/01/31 01:18:50;;;;;;;36.37;18.80;;;;;;;1.32;100.00;93613.50;10536517;28;20270;-78
2021/01/31 01:23:50;;;;;;;31.50;18.50;;;;;;;1.33;100.00;93630.22;10536264;28;20389;-79
2021/01/31 01:28:50;;;;;;;37.10;18.00;;;;;;;1.31;100.00;93637.59;10536586;28;20330;-79
2021/01/31 01:33:51;;;;;;;34.47;16.67;;;;;;;1.49;100.00;93610.84;10517597;28;20016;-79
2021/01/31 01:38:52;;;;;;;28.77;16.80;;;;;;;1.42;100.00;93588.25;10536393;28;20024;-79
2021/01/31 01:43:55;;;;;;;27.57;15.47;;;;;;;1.42;100.00;93618.16;10535579;28;20035;-79
2021/01/31 01:49:21;;;;;;;33.60;16.25;;;;;;;1.49;100.00;93632.03;10536141;28;20464;-79
2021/01/31 01:54:40;;;;;;;34.55;15.75;;;;;;;1.73;100.00;93617.75;10535778;28;20024;-79
2021/01/31 01:59:43;;;;;;;32.28;15.65;;;;;;;1.61;100.00;93645.16;10535492;28;20558;-78
2021/01/31 02:04:44;;;;;;;28.30;15.40;;;;;;;1.74;100.00;93622.81;10517332;28;20499;-78
2021/01/31 02:09:50;;;;;;;29.73;15.15;;;;;;;1.76;100.00;93639.28;10534886;28;20475;-78
2021/01/31 02:14:53;;;;;;;23.75;12.85;;;;;;;1.78;100.00;93623.94;10534943;28;20111;-78
2021/01/31 02:20:30;;;;;;;23.55;12.45;;;;;;;1.95;100.00;93613.25;10534288;28;20043;-78
2021/01/31 02:25:51;;;;;;;26.65;13.20;;;;;;;1.99;100.00;93613.59;10533837;28;20078;-78
2021/01/31 02:31:16;;;;;;;26.00;12.30;;;;;;;2.01;100.00;93614.13;10533959;28;20032;-78
2021/01/31 02:36:38;;;;;;;20.00;11.20;;;;;;;2.07;100.00;93599.91;10534253;28;20032;-79
2021/01/31 02:41:57;;;;;;;22.08;11.13;;;;;;;2.02;100.00;93603.31;10532610;28;20033;-79
2021/01/31 02:47:00;;;;;;;15.52;9.85;;;;;;;1.96;100.00;93584.94;10533227;28;20368;-78
2021/01/31 02:52:22;;;;;;;19.25;10.35;;;;;;;1.93;100.00;93596.03;10532740;28;20024;-78
2021/01/31 02:57:29;;;;;;;24.17;10.63;;;;;;;1.82;100.00;93589.81;10532435;28;20077;-78
2021/01/31 03:02:36;;;;;;;24.05;11.95;;;;;;;1.80;100.00;93579.47;10532593;28;20085;-78
2021/01/31 03:07:44;;;;;;;21.70;9.88;;;;;;;1.86;100.00;93565.22;10532634;28;20080;-78
2021/01/31 03:13:03;;;;;;;21.55;9.68;;;;;;;1.96;100.00;93577.00;10532591;28;20024;-78
2021/01/31 03:18:11;;;;;;;18.23;10.00;;;;;;;2.08;100.00;93576.84;10531946;28;20485;-78
2021/01/31 03:23:31;;;;;;;;;;;;;;;2.05;100.00;93589.56;10531809;28;20428;-78
2021/01/31 03:28:31;;;;;;;18.23;9.35;;;;;;;2.07;100.00;93568.09;10531495;28;19977;-78
2021/01/31 03:33:44;;;;;;;20.23;10.93;;;;;;;2.09;100.00;93559.91;10531716;28;20065;-77
2021/01/31 03:38:48;;;;;;;21.00;10.43;;;;;;;2.21;100.00;93537.50;10531157;28;20341;-78
2021/01/31 03:43:49;;;;;;;26.48;13.30;;;;;;;2.15;100.00;93524.44;10531484;28;20032;-78
2021/01/31 03:48:59;;;;;;;19.42;10.15;;;;;;;2.15;100.00;93525.25;10531193;28;20089;-79
2021/01/31 03:54:00;;;;;;;21.17;10.88;;;;;;;2.16;100.00;93526.84;10533440;28;20028;-78
2021/01/31 03:59:02;;;;;;;23.30;11.88;;;;;;;1.96;100.00;93547.84;10539308;28;20028;-78
2021/01/31 04:04:35;;;;;;;26.92;13.52;;;;;;;1.79;100.00;93543.41;10539696;28;20051;-78
2021/01/31 04:09:38;;;;;;;35.17;15.40;;;;;;;1.46;100.00;93531.91;10531998;28;20040;-77
2021/01/31 04:14:47;;;;;;;33.22;14.02;;;;;;;1.40;100.00;93540.03;10539006;28;20450;-78
2021/01/31 04:19:48;;;;;;;31.50;14.55;;;;;;;1.19;100.00;93545.06;10538814;28;20052;-78
2021/01/31 04:24:48;;;;;;;31.40;15.75;;;;;;;1.26;100.00;93542.25;10538896;28;20114;-78
2021/01/31 04:29:49;;;;;;;24.03;13.47;;;;;;;1.28;100.00;93533.00;10538191;28;20028;-74
2021/01/31 04:34:49;;;;;;;32.93;16.63;;;;;;;1.27;100.00;93530.59;10520043;28;20085;-74
2021/01/31 04:39:50;;;;;;;34.53;17.00;;;;;;;1.33;100.00;93519.03;10538192;28;20063;-74
2021/01/31 04:44:50;;;;;;;31.60;15.75;;;;;;;1.37;100.00;93498.97;10537094;28;20028;-74
2021/01/31 04:50:07;;;;;;;31.00;15.57;;;;;;;1.18;100.00;93496.59;10537518;28;20036;-75
2021/01/31 04:55:15;;;;;;;25.63;13.20;;;;;;;1.13;100.00;93498.38;10519117;28;20028;-75
2021/01/31 05:00:21;;;;;;;24.80;13.43;;;;;;;1.21;100.00;93503.25;10536056;28;20063;-75
2021/01/31 05:05:39;;;;;;;27.50;14.70;;;;;;;1.19;100.00;93513.31;10536007;28;20412;-74
2021/01/31 05:10:39;;;;;;;26.87;14.23;;;;;;;0.95;100.00;93523.28;10541631;28;20035;-74
2021/01/31 05:15:51;;;;;;;28.80;14.50;;;;;;;1.10;100.00;93534.06;10578589;28;20486;-74
2021/01/31 05:21:01;;;;;;;30.48;14.77;;;;;;;1.10;100.00;93510.25;10575986;28;20521;-74
2021/01/31 05:26:02;;;;;;;31.55;14.02;;;;;;;1.19;100.00;93514.09;10535751;28;20044;-75
2021/01/31 05:31:03;;;;;;;31.55;14.93;;;;;;;1.14;100.00;93495.50;10571456;28;20031;-75
2021/01/31 05:36:06;;;;;;;29.00;15.00;;;;;;;1.20;100.00;93493.75;10577181;28;20035;-75
2021/01/31 05:41:28;;;;;;;25.02;13.45;;;;;;;1.29;100.00;93491.47;10577217;28;20080;-74
2021/01/31 05:46:38;;;;;;;24.75;12.00;;;;;;;1.29;100.00;93508.13;10576973;28;20031;-74
2021/01/31 05:51:41;;;;;;;25.75;12.68;;;;;;;1.47;100.00;93498.31;10577210;28;20777;-74
2021/01/31 05:56:44;;;;;;;22.30;12.30;;;;;;;1.37;100.00;93530.75;10576443;28;20110;-74
2021/01/31 06:02:00;;;;;;;19.17;11.00;;;;;;;1.33;100.00;93532.28;10576622;28;20039;-74
2021/01/31 06:07:14;;;;;;;17.00;10.55;;;;;;;1.50;100.00;93529.56;10572407;28;20032;-75
2021/01/31 06:12:24;;;;;;;22.52;12.05;;;;;;;1.66;100.00;93543.78;10533905;28;20039;-74
2021/01/31 06:17:29;;;;;;;25.45;11.38;;;;;;;1.75;100.00;93541.53;10533777;28;20028;-74
2021/01/31 06:22:44;;;;;;;32.50;15.57;;;;;;;1.89;100.00;93553.31;10532877;28;20136;-74
2021/01/31 06:27:44;;;;;;;38.55;19.77;;;;;;;1.82;100.00;93568.63;10533147;28;20043;-75
2021/01/31 06:32:47;;;;;;;34.88;19.92;;;;;;;1.95;100.00;93583.31;10515287;28;20030;-75
2021/01/31 06:38:15;;;;;;;48.92;23.35;;;;;;;1.85;100.00;93576.84;10532738;28;20452;-75
2021/01/31 06:43:39;;;;;;;51.90;23.20;;;;;;;1.95;100.00;93570.88;10532483;28;20031;-76
2021/01/31 06:49:06;;;;;;;42.67;20.40;;;;;;;2.15;100.00;93564.19;10532997;28;20388;-75
2021/01/31 06:54:32;;;;;;;42.00;18.63;;;;;;;2.09;100.00;93589.84;10571230;28;20028;-76
2021/01/31 06:59:45;;;;;;;35.13;19.08;;;;;;;2.15;100.00;93577.44;10574250;28;20038;-75
2021/01/31 07:05:08;;;;;;;32.42;16.50;;;;;;;2.30;100.00;93600.66;10575812;28;20053;-75
2021/01/31 07:10:38;;;;;;;39.35;17.77;;;;;;;2.54;100.00;93586.06;10523723;28;20101;-75
2021/01/31 07:15:59;;;;;;;35.13;17.70;;;;;;;2.39;100.00;93610.56;10514186;28;20036;-76
2021/01/31 07:20:59;;;;;;;29.95;15.52;;;;;;;2.74;100.00;93597.91;10513014;28;20108;-77
2021/01/31 07:26:19;;;;;;;38.38;16.23;;;;;;;2.81;100.00;93598.50;10531749;28;20384;-76
2021/01/31 07:31:29;;;;;;;30.95;14.13;;;;;;;2.85;100.00;93607.56;10562072;28;20025;-75
2021/01/31 07:36:37;;;;;;;30.25;15.52;;;;;;;3.36;100.00;93601.84;10571600;28;20039;-77
2021/01/31 07:41:49;;;;;;;30.27;14.10;;;;;;;3.54;100.00;93582.00;10538676;28;20119;-76
2021/01/31 07:46:49;;;;;;;27.38;13.05;;;;;;;3.61;100.00;93596.91;10562878;28;20128;-75
2021/01/31 07:51:49;;;;;;;23.25;12.30;;;;;;;3.88;100.00;93597.59;10569113;28;20030;-76
2021/01/31 07:56:52;;;;;;;21.80;11.48;;;;;;;4.05;100.00;93576.13;10512682;28;20038;-76
2021/01/31 08:01:54;;;;;;;21.98;11.02;;;;;;;4.38;100.00;93589.22;10529964;28;20035;-75
2021/01/31 08:07:00;;;;;;;27.88;12.82;;;;;;;4.47;100.00;93600.19;10512406;28;20040;-75
2021/01/31 08:12:12;;;;;;;22.67;13.00;;;;;;;4.36;100.00;93586.06;10549090;28;20027;-76
2021/01/31 08:17:41;;;;;;;30.30;15.50;;;;;;;4.73;100.00;93593.00;10569823;28;20106;-74
2021/01/31 08:22:41;;;;;;;;;;;;;;;4.94;100.00;93577.88;10565513;28;20036;-68
2021/01/31 08:27:42;;;;;;;24.42;11.93;;;;;;;5.74;100.00;93576.44;10567228;28;20306;-68
2021/01/31 08:32:57;;;;;;;21.27;11.60;;;;;;;6.76;100.00;93580.50;10564851;28;20387;-68
2021/01/31 08:38:16;;;;;;;26.73;14.38;;;;;;;7.34;100.00;93579.78;10568348;28;20432;-69
2021/01/31 08:43:26;;;;;;;19.42;10.40;;;;;;;7.61;100.00;93575.00;10570499;28;20032;-70
2021/01/31 08:48:27;;;;;;;19.77;9.40;;;;;;;7.62;100.00;93587.25;10575464;28;20068;-69
2021/01/31 08:53:28;;;;;;;20.70;10.63;;;;;;;8.28;100.00;93566.22;10576981;28;20081;-69
2021/01/31 08:58:28;;;;;;;11.90;6.50;;;;;;;8.46;89.34;93584.22;10576212;28;20023;-70
2021/01/31 09:03:28;;;;;;;14.17;7.33;;;;;;;8.51;87.17;93583.34;10578119;28;20042;-70
2021/01/31 09:08:29;;;;;;;21.00;11.95;;;;;;;8.19;92.32;93590.94;10558094;28;20890;-68
2021/01/31 09:13:31;;;;;;;20.85;10.88;;;;;;;8.35;93.74;93596.09;10575440;28;20126;-68
2021/01/31 09:18:32;;;;;;;29.13;14.27;;;;;;;8.22;90.29;93613.66;10574829;28;20110;-69
2021/01/31 09:23:34;;;;;;;23.40;12.67;;;;;;;7.62;99.36;93603.31;10572271;28;20044;-70
2021/01/31 09:28:39;;;;;;;29.55;15.30;;;;;;;7.36;100.00;93609.69;10556718;28;20277;-69
2021/01/31 09:33:42;;;;;;;37.33;20.58;;;;;;;7.21;100.00;93607.16;10572925;28;20107;-69
2021/01/31 09:38:48;;;;;;;42.53;21.73;;;;;;;7.11;100.00;93604.56;10575741;28;20450;-69
2021/01/31 09:43:57;;;;;;;46.53;22.17;;;;;;;6.90;100.00;93606.59;10550793;28;20050;-69
2021/01/31 09:49:18;;;;;;;40.53;18.95;;;;;;;6.86;100.00;93609.00;10534087;28;20024;-68
2021/01/31 09:54:29;;;;;;;22.30;11.35;;;;;;;6.71;100.00;93595.75;10534163;28;20027;-70
2021/01/31 09:59:33;;;;;;;25.83;14.45;;;;;;;6.63;100.00;93595.25;10534182;28;20376;-68
2021/01/31 10:04:35;;;;;;;46.28;22.27;;;;;;;6.82;100.00;93587.41;10531497;28;20024;-69
2021/01/31 10:09:39;;;;;;;36.28;19.00;;;;;;;6.66;100.00;93597.38;10533671;28;20024;-68
2021/01/31 10:14:41;;;;;;;41.08;18.42;;;;;;;6.93;100.00;93590.00;10535160;28;20027;-69
2021/01/31 10:19:44;;;;;;;39.67;20.08;;;;;;;7.16;100.00;93570.59;10575739;28;20573;-69
2021/01/31 10:24:48;;;;;;;44.83;21.08;;;;;;;7.61;100.00;93573.09;10575266;28;20456;-68
2021/01/31 10:29:51;;;;;;;45.92;21.70;;;;;;;7.73;100.00;93561.22;10566184;28;20032;-69
2021/01/31 10:34:55;;;;;;;37.10;20.38;;;;;;;7.62;100.00;93555.19;10562577;28;20542;-68
2021/01/31 10:39:56;;;;;;;40.70;20.60;;;;;;;7.74;97.52;93566.28;10563494;28;20397;-68
2021/01/31 10:45:06;;;;;;;46.33;21.73;;;;;;;7.65;99.78;93546.63;10571660;28;20030;-69
2021/01/31 10:50:07;;;;;;;40.00;22.27;;;;;;;7.28;100.00;93553.38;10569576;28;20130;-69
2021/01/31 10:55:10;;;;;;;39.63;20.77;;;;;;;7.52;100.00;93540.84;10572865;28;20071;-69
2021/01/31 11:00:12;;;;;;;39.58;20.70;;;;;;;8.09;100.00;93545.56;10574418;28;20031;-68
2021/01/31 11:05:13;;;;;;;40.97;23.55;;;;;;;8.68;98.04;93543.47;10573222;28;20111;-68
2021/01/31 11:10:16;;;;;;;37.10;18.70;;;;;;;8.92;89.67;93534.53;10566904;28;20111;-69
2021/01/31 11:15:18;;;;;;;55.25;27.05;;;;;;;9.41;88.03;93519.78;10539055;28;20028;-68
2021/01/31 11:20:18;;;;;;;61.47;32.72;;;;;;;9.37;88.89;93518.00;10550877;28;20520;-71
2021/01/31 11:25:19;;;;;;;63.35;31.83;;;;;;;9.49;94.29;93501.41;10463098;28;20120;-70
2021/01/31 11:30:20;;;;;;;63.67;33.53;;;;;;;10.16;84.63;93505.47;10482959;28;20194;-70
2021/01/31 11:35:20;;;;;;;69.55;33.47;;;;;;;11.16;72.61;93509.19;10487839;28;20465;-71
2021/01/31 11:40:21;;;;;;;61.83;31.33;;;;;;;11.79;66.28;93512.66;10487878;28;20475;-70
2021/01/31 11:45:24;;;;;;;62.35;32.67;;;;;;;11.55;71.93;93467.28;10487390;28;20286;-71
2021/01/31 11:50:25;;;;;;;59.60;28.95;;;;;;;12.08;61.41;93477.16;10483866;28;20024;-70
2021/01/31 11:55:25;;;;;;;64.87;31.17;;;;;;;12.10;59.80;93456.09;10486874;28;20025;-70
2021/01/31 12:00:26;;;;;;;69.65;35.08;;;;;;;11.48;59.89;93461.56;10488012;28;20474;-70
2021/01/31 12:05:26;;;;;;;72.72;39.53;;;;;;;11.21;61.59;93448.00;10449795;28;20414;-69
2021/01/31 12:10:27;;;;;;;59.17;35.28;;;;;;;10.56;65.61;93458.19;10446731;28;20506;-71
2021/01/31 12:15:27;;;;;;;69.73;37.23;;;;;;;9.79;69.38;93459.78;10449415;28;20452;-70
2021/01/31 12:20:27;;;;;;;60.35;31.55;;;;;;;9.98;69.26;93457.00;10466468;28;20337;-70
2021/01/31 12:25:29;;;;;;;64.77;34.00;;;;;;;9.84;71.43;93456.22;10536009;28;20123;-70
2021/01/31 12:30:32;;;;;;;60.72;31.00;;;;;;;9.91;71.29;93446.66;10537789;28;20645;-69
2021/01/31 12:35:32;;;;;;;67.85;35.60;;;;;;;9.75;74.61;93431.97;10537442;28;20111;-70
2021/01/31 12:40:33;;;;;;;75.38;35.67;;;;;;;9.82;76.49;93436.94;10537345;28;20107;-70
2021/01/31 12:45:33;;;;;;;63.13;31.80;;;;;;;9.60;79.43;93446.50;10537429;28;20027;-70
2021/01/31 12:50:34;;;;;;;51.78;25.02;;;;;;;9.50;77.84;93435.97;10536893;28;20039;-70
2021/01/31 12:55:35;;;;;;;45.95;23.83;;;;;;;9.57;70.44;93425.63;10536667;28;20411;-70
2021/01/31 13:00:36;;;;;;;42.80;21.58;;;;;;;9.28;72.33;93428.59;10536204;28;20024;-71
2021/01/31 13:05:37;;;;;;;34.13;19.60;;;;;;;9.37;75.19;93400.78;10536464;28;20862;-70
2021/01/31 13:10:37;;;;;;;29.90;16.50;;;;;;;9.46;74.21;93395.53;10536218;28;20376;-70
2021/01/31 13:15:37;;;;;;;30.43;17.43;;;;;;;9.52;72.41;93390.88;10509705;28;20586;-72
2021/01/31 13:20:38;;;;;;;31.67;17.23;;;;;;;9.52;70.23;93393.56;10493975;28;20049;-70
2021/01/31 13:25:38;;;;;;;29.13;17.30;;;;;;;9.45;71.01;93379.75;10493326;28;20300;-69
2021/01/31 13:30:41;;;;;;;30.40;16.77;;;;;;;9.29;72.43;93372.00;10493541;28;20275;-69
2021/01/31 13:35:42;;;;;;;31.27;16.20;;;;;;;9.01;72.88;93374.66;10493743;28;20371;-69
2021/01/31 13:40:42;;;;;;;30.33;17.57;;;;;;;8.79;73.19;93371.88;10493109;28;20035;-69
2021/01/31 13:45:43;;;;;;;33.95;17.92;;;;;;;8.64;76.24;93383.66;10492956;28;20032;-70
2021/01/31 13:50:43;;;;;;;32.25;17.48;;;;;;;8.46;81.01;93355.84;10492670;28;20051;-70
2021/01/31 13:55:44;;;;;;;33.60;17.60;;;;;;;8.48;80.87;93357.13;10474483;28;20495;-70
2021/01/31 14:00:44;;;;;;;38.60;18.37;;;;;;;8.47;80.29;93355.53;10492299;28;20283;-70
2021/01/31 14:05:44;;;;;;;32.07;15.77;;;;;;;8.54;82.96;93347.91;10474021;28;20283;-71
2021/01/31 14:10:45;;;;;;;33.25;16.60;;;;;;;8.57;83.63;93338.50;10497809;28;20752;-70
2021/01/31 14:15:45;;;;;;;31.55;16.88;;;;;;;8.64;84.81;93330.88;10527698;28;20024;-70
2021/01/31 14:20:46;;;;;;;25.95;13.70;;;;;;;8.58;77.98;93315.19;10528511;28;20048;-68
2021/01/31 14:25:46;;;;;;;20.57;10.97;;;;;;;8.56;76.76;93312.81;10553354;28;20130;-68
2021/01/31 14:30:46;;;;;;;18.87;10.27;;;;;;;8.58;74.53;93310.63;10510628;28;20031;-69
2021/01/31 14:35:47;;;;;;;32.33;16.37;;;;;;;8.44;85.31;93312.47;10519693;28;20028;-69
2021/01/31 14:40:47;;;;;;;36.37;17.97;;;;;;;8.48;88.86;93332.22;10481808;28;20288;-68
2021/01/31 14:45:47;;;;;;;35.05;18.83;;;;;;;8.42;90.42;93318.13;10467560;28;20365;-69
2021/01/31 14:50:48;;;;;;;39.57;19.03;;;;;;;8.32;92.21;93340.50;10487613;28;20055;-69
2021/01/31 14:55:48;;;;;;;31.17;15.17;;;;;;;8.19;89.35;93333.19;10497568;28;20035;-69
2021/01/31 15:00:49;;;;;;;11.60;6.27;;;;;;;8.05;75.13;93341.19;10510279;28;20036;-69
2021/01/31 15:05:49;;;;;;;8.95;4.72;;;;;;;7.97;73.13;93348.00;10526252;28;20351;-69
2021/01/31 15:10:50;;;;;;;7.28;3.30;;;;;;;7.77;74.19;93322.38;10528789;28;20039;-69
2021/01/31 15:15:51;;;;;;;7.85;4.18;;;;;;;7.69;76.23;93312.31;10524613;28;20558;-68
2021/01/31 15:20:51;;;;;;;7.55;3.55;;;;;;;7.58;77.98;93303.66;10520650;28;20063;-69
2021/01/31 15:25:52;;;;;;;10.60;5.25;;;;;;;7.59;79.71;93304.44;10509117;28;20040;-69
2021/01/31 15:30:52;;;;;;;11.38;6.03;;;;;;;7.61;83.37;93284.34;10518645;28;20059;-69
2021/01/31 15:35:53;;;;;;;12.50;5.10;;;;;;;7.66;82.26;93259.41;10497206;28;20028;-70
2021/01/31 15:40:53;;;;;;;7.90;4.47;;;;;;;7.64;81.53;93256.25;10515627;28;20028;-70
2021/01/31 15:45:54;;;;;;;6.85;4.32;;;;;;;7.59;81.43;93269.66;10487067;28;20036;-70
2021/01/31 15:50:54;;;;;;;9.30;4.50;;;;;;;7.42;84.06;93268.31;10490038;28;20043;-70
2021/01/31 15:55:55;;;;;;;16.35;4.53;;;;;;;7.30;82.28;93247.38;10495543;28;20020;-71
2021/01/31 16:00:55;;;;;;;13.93;4.30;;;;;;;7.36;83.03;93248.88;10512876;28;20033;-70
2021/01/31 16:05:56;;;;;;;13.38;6.70;;;;;;;7.07;85.32;93253.56;10522862;28;20297;-70
2021/01/31 16:10:57;;;;;;;11.37;5.77;;;;;;;6.83;84.64;93257.84;10525697;28;20033;-70
2021/01/31 16:15:59;;;;;;;6.10;3.88;;;;;;;6.58;82.80;93269.63;10504353;28;20270;-70
2021/01/31 16:20:59;;;;;;;6.05;3.03;;;;;;;6.43;85.09;93265.28;10535647;28;20423;-71
2021/01/31 16:26:00;;;;;;;5.20;2.90;;;;;;;6.30;87.33;93263.25;10536037;28;20039;-70
2021/01/31 16:31:00;;;;;;;4.50;2.85;;;;;;;6.23;88.60;93265.47;10517032;28;20122;-71
2021/01/31 16:36:01;;;;;;;5.32;2.83;;;;;;;6.18;89.47;93244.97;10535254;28;20036;-70
2021/01/31 16:41:01;;;;;;;6.55;3.03;;;;;;;6.05;92.38;93257.09;10491605;28;20052;-70
2021/01/31 16:46:02;;;;;;;8.48;3.83;;;;;;;6.06;95.70;93250.69;10493329;28;20029;-70
2021/01/31 16:51:03;;;;;;;6.53;3.60;;;;;;;5.97;96.99;93241.66;10493394;28;20039;-70
2021/01/31 16:56:04;;;;;;;4.80;3.30;;;;;;;5.82;100.00;93232.75;10492395;28;20648;-70
2021/01/31 17:01:04;;;;;;;5.95;3.03;;;;;;;5.85;100.00;93227.91;10506957;28;20069;-70
2021/01/31 17:06:05;;;;;;;4.30;2.47;;;;;;;5.78;100.00;93223.72;10533994;28;20123;-70
2021/01/31 17:11:06;;;;;;;8.70;3.70;;;;;;;5.81;100.00;93249.81;10532854;28;20058;-70
2021/01/31 17:16:06;;;;;;;6.78;4.15;;;;;;;5.94;100.00;93239.56;10534215;28;20023;-71
2021/01/31 17:21:07;;;;;;;14.23;5.17;;;;;;;5.98;100.00;93245.97;10515247;28;20040;-70
2021/01/31 17:26:09;;;;;;;7.32;4.75;;;;;;;6.15;100.00;93226.84;10532036;28;20070;-70
2021/01/31 17:31:09;;;;;;;8.75;4.88;;;;;;;6.17;100.00;93227.38;10529767;28;20062;-70
2021/01/31 17:36:10;;;;;;;8.95;5.07;;;;;;;6.24;100.00;93235.84;10529665;28;20024;-70
2021/01/31 17:41:11;;;;;;;7.93;4.95;;;;;;;6.22;100.00;93224.66;10528340;28;20028;-68
2021/01/31 17:46:11;;;;;;;8.07;4.80;;;;;;;6.07;100.00;93222.13;10525726;28;20025;-69
2021/01/31 17:51:11;;;;;;;10.93;5.43;;;;;;;6.08;100.00;93229.84;10529778;28;20285;-69
2021/01/31 17:56:12;;;;;;;11.80;6.38;;;;;;;6.10;100.00;93240.25;10528775;28;20308;-69
2021/01/31 18:01:13;;;;;;;12.13;5.50;;;;;;;5.98;100.00;93233.41;10528341;28;20031;-70
2021/01/31 18:06:13;;;;;;;11.35;5.60;;;;;;;5.94;100.00;93203.03;10525740;28;20365;-69
2021/01/31 18:11:14;;;;;;;14.83;5.97;;;;;;;5.97;100.00;93191.84;10523237;28;20028;-69
2021/01/31 18:16:15;;;;;;;20.08;8.13;;;;;;;5.87;100.00;93178.56;10527767;28;20034;-70
2021/01/31 18:21:15;;;;;;;19.38;8.30;;;;;;;5.80;100.00;93181.59;10527369;28;20044;-69
2021/01/31 18:26:17;;;;;;;21.30;8.65;;;;;;;5.63;100.00;93183.88;10527000;28;20036;-71
2021/01/31 18:31:18;;;;;;;22.38;10.27;;;;;;;5.63;100.00;93181.97;10553628;28;20027;-70
2021/01/31 18:36:18;;;;;;;27.02;12.00;;;;;;;5.66;100.00;93193.97;10549652;28;20035;-69
2021/01/31 18:41:19;;;;;;;21.20;9.73;;;;;;;5.59;100.00;93185.50;10549251;28;20472;-70
2021/01/31 18:46:20;;;;;;;27.33;12.73;;;;;;;5.78;100.00;93188.28;10568885;28;20067;-69
2021/01/31 18:51:21;;;;;;;18.23;10.20;;;;;;;5.59;100.00;93175.63;10550973;28;20119;-69
2021/01/31 18:56:21;;;;;;;19.80;8.73;;;;;;;5.43;100.00;93196.28;10567811;28;20032;-69
2021/01/31 19:01:22;;;;;;;22.48;10.45;;;;;;;5.48;100.00;93206.91;10566546;28;20112;-69
2021/01/31 19:06:22;;;;;;;18.13;9.43;;;;;;;5.39;100.00;93178.47;10565608;28;20028;-69
2021/01/31 19:11:23;;;;;;;17.43;10.07;;;;;;;5.42;100.00;93193.91;10562096;28;20047;-69
2021/01/31 19:16:23;;;;;;;16.05;8.45;;;;;;;5.43;100.00;93190.16;10559066;28;20258;-68
2021/01/31 19:21:24;;;;;;;19.20;11.65;;;;;;;5.57;100.00;93177.00;10565708;27;20479;-69
2021/01/31 19:26:26;;;;;;;19.10;11.27;;;;;;;5.72;100.00;93173.38;10576474;27;20171;-70
2021/01/31 19:31:29;;;;;;;19.52;10.70;;;;;;;5.63;100.00;93191.84;10577063;27;20267;-69
2021/01/31 19:36:29;;;;;;;18.65;10.60;;;;;;;5.74;100.00;93176.56;10561613;28;20023;-69
2021/01/31 19:41:30;;;;;;;18.25;11.00;;;;;;;5.84;100.00;93171.13;10565613;28;20031;-69
2021/01/31 19:46:30;;;;;;;20.63;10.55;;;;;;;5.77;100.00;93213.34;10565587;28;20035;-69
2021/01/31 19:51:31;;;;;;;18.60;10.80;;;;;;;5.88;100.00;93196.16;10563273;28;20026;-69
2021/01/31 19:56:31;;;;;;;18.73;10.90;;;;;;;5.88;100.00;93184.72;10564539;28;20059;-69
2021/01/31 20:01:32;;;;;;;27.55;14.07;;;;;;;5.86;100.00;93176.19;10548124;28;20016;-69
2021/01/31 20:06:32;;;;;;;29.70;14.07;;;;;;;5.84;100.00;93171.13;10549369;28;20019;-68
2021/01/31 20:11:33;;;;;;;28.80;13.17;;;;;;;5.71;100.00;93174.47;10566806;28;20402;-68
2021/01/31 20:16:33;;;;;;;23.13;12.63;;;;;;;5.72;100.00;93168.88;10541225;28;20574;-68
2021/01/31 20:21:33;;;;;;;23.83;14.60;;;;;;;5.70;100.00;93162.22;10528706;28;20488;-70
2021/01/31 20:26:34;;;;;;;24.25;12.52;;;;;;;5.50;100.00;93145.34;10528728;28;20278;-69
2021/01/31 20:31:34;;;;;;;29.90;13.98;;;;;;;5.18;100.00;93162.66;10528404;28;20480;-70
2021/01/31 20:36:36;;;;;;;24.70;13.07;;;;;;;4.82;100.00;93152.25;10530727;28;20089;-69
2021/01/31 20:41:36;;;;;;;26.33;13.05;;;;;;;4.75;100.00;93146.44;10501214;28;20297;-68
2021/01/31 20:46:37;;;;;;;26.40;14.63;;;;;;;4.99;100.00;93141.22;10536110;28;20028;-68
2021/01/31 20:51:37;;;;;;;25.42;12.65;;;;;;;4.96;100.00;93137.22;10535905;28;21061;-69
2021/01/31 20:56:38;;;;;;;23.60;12.85;;;;;;;4.79;100.00;93132.28;10537255;28;20073;-69
2021/01/31 21:01:38;;;;;;;23.70;12.57;;;;;;;4.77;100.00;93133.63;10540936;28;20031;-69
2021/01/31 21:06:41;;;;;;;27.15;12.82;;;;;;;4.80;100.00;93135.78;10560412;28;20270;-70
2021/01/31 21:11:41;;;;;;;26.30;13.65;;;;;;;5.04;100.00;93143.06;10579049;28;20471;-70
2021/01/31 21:16:41;;;;;;;33.22;15.70;;;;;;;5.13;100.00;93142.19;10578508;28;20027;-70
2021/01/31 21:21:42;;;;;;;33.70;17.15;;;;;;;4.82;100.00;93138.16;10578056;28;20040;-71
2021/01/31 21:26:42;;;;;;;31.30;17.00;;;;;;;4.76;100.00;93148.81;10578083;28;20023;-71
2021/01/31 21:31:43;;;;;;;31.73;17.53;;;;;;;4.50;100.00;93156.16;10578368;28;20032;-71
2021/01/31 21:36:43;;;;;;;36.60;19.27;;;;;;;4.61;100.00;93141.72;10577641;28;20024;-71
2021/01/31 21:41:43;;;;;;;38.90;19.60;;;;;;;4.67;100.00;93139.81;10577940;28;20024;-72
2021/01/31 21:46:46;;;;;;;35.57;19.10;;;;;;;4.69;100.00;93123.56;10577055;28;20476;-70
2021/01/31 21:51:46;;;;;;;47.55;22.27;;;;;;;4.77;100.00;93117.66;10534041;28;20020;-70
2021/01/31 21:56:47;;;;;;;37.63;19.47;;;;;;;4.59;100.00;93122.59;10535040;28;20451;-70
2021/01/31 22:01:47;;;;;;;38.47;21.17;;;;;;;4.44;100.00;93138.63;10534203;28;20020;-70
2021/01/31 22:06:48;;;;;;;46.83;22.60;;;;;;;4.14;100.00;93142.22;10534169;28;20270;-70
2021/01/31 22:11:48;;;;;;;42.67;21.35;;;;;;;4.10;100.00;93126.81;10534149;28;20273;-69
2021/01/31 22:16:48;;;;;;;44.63;21.23;;;;;;;4.05;100.00;93120.72;10515726;28;20027;-71
2021/01/31 22:21:49;;;;;;;51.10;22.07;;;;;;;4.31;100.00;93120.59;10532912;28;20043;-71
2021/01/31 22:26:49;;;;;;;41.47;23.10;;;;;;;4.36;100.00;93124.03;10533544;28;20849;-71
2021/01/31 22:31:49;;;;;;;36.47;18.85;;;;;;;4.13;100.00;93138.78;10533430;28;20020;-70
2021/01/31 22:36:50;;;;;;;43.53;22.97;;;;;;;4.07;100.00;93126.56;10533208;28;20486;-70
2021/01/31 22:41:50;;;;;;;45.80;24.77;;;;;;;3.93;100.00;93115.72;10532544;28;20077;-70
2021/01/31 22:46:52;;;;;;;39.43;20.87;;;;;;;4.08;100.00;93123.63;10532753;28;20823;-70
2021/01/31 22:51:52;;;;;;;43.85;22.27;;;;;;;4.08;100.00;93128.94;10532809;28;20276;-70
2021/01/31 22:56:54;;;;;;;44.60;20.80;;;;;;;4.31;100.00;93132.03;10532138;28;20034;-70
2021/01/31 23:01:54;;;;;;;45.72;21.50;;;;;;;4.33;100.00;93129.13;10531543;28;20798;-71
2021/01/31 23:06:54;;;;;;;34.37;18.33;;;;;;;4.33;100.00;93140.53;10532089;28;20069;-70
2021/01/31 23:11:55;;;;;;;36.53;19.97;;;;;;;4.31;100.00;93136.56;10513102;28;20273;-70